Time;durP1;ratioP1;P1;durP2;ratioP2;P2;SDS_P1;SDS_P2;PMS_P1;PMS_P2;Temp;Humidity;BMP_temperature;BMP_pressure;BME280_temperature;BME280_humidity;BME280_pressure;Samples;Min_cycle;Max_cycle;Signal;HPM_P1;HPM_P2
2022/10/11 00:01:24;;;;;;;12.50;10.60;;;13.40;99.90;;;;;;6143265;23;20182;-88
2022/10/11 00:06:37;;;;;;;11.93;10.18;;;13.10;99.90;;;;;;6120414;23;20170;-88
2022/10/11 00:09:07;;;;;;;11.02;9.93;;;12.90;99.90;;;;;;6109755;23;20188;-86
2022/10/11 00:11:35;;;;;;;14.68;9.95;;;12.90;99.90;;;;;;6105861;23;20202;-86
2022/10/11 00:14:02;;;;;;;12.50;9.75;;;12.80;99.90;;;;;;6105048;23;20257;-86
2022/10/11 00:16:29;;;;;;;13.05;10.60;;;12.90;99.90;;;;;;6106327;23;20205;-87
2022/10/11 00:19:02;;;;;;;10.63;9.30;;;12.90;99.90;;;;;;6107330;23;20185;-88
2022/10/11 00:21:30;;;;;;;11.23;9.77;;;12.90;99.90;;;;;;6109150;23;20182;-86
2022/10/11 00:23:57;;;;;;;12.05;10.70;;;12.80;99.90;;;;;;6103648;23;20210;-86
2022/10/11 00:26:24;;;;;;;12.30;9.88;;;12.80;99.90;;;;;;6106532;23;20221;-85
2022/10/11 00:28:54;;;;;;;12.20;9.55;;;12.70;99.90;;;;;;6105601;23;20264;-88
2022/10/11 00:31:22;;;;;;;14.95;9.73;;;12.60;99.90;;;;;;6106707;23;20273;-90
2022/10/11 00:33:51;;;;;;;13.15;9.65;;;12.70;99.90;;;;;;6107550;23;20251;-88
2022/10/11 00:36:18;;;;;;;13.02;10.52;;;12.70;99.90;;;;;;6107074;23;20206;-86
2022/10/11 00:38:45;;;;;;;12.95;9.80;;;12.50;99.90;;;;;;6083375;23;20181;-86
2022/10/11 00:41:16;;;;;;;18.52;10.00;;;12.50;99.90;;;;;;6111896;23;20174;-85
2022/10/11 00:43:46;;;;;;;12.50;10.38;;;12.40;99.90;;;;;;6122773;23;20231;-86
2022/10/11 00:46:16;;;;;;;14.25;9.75;;;12.50;99.90;;;;;;6122904;23;20174;-85
2022/10/11 00:48:52;;;;;;;13.05;10.35;;;12.30;99.90;;;;;;6123254;23;20174;-87
2022/10/11 00:51:42;;;;;;;15.50;10.95;;;12.00;99.90;;;;;;6121316;23;20263;-87
2022/10/11 00:54:15;;;;;;;11.90;10.65;;;11.90;99.90;;;;;;6107177;23;20198;-86
2022/10/11 00:56:49;;;;;;;18.77;13.63;;;12.10;99.90;;;;;;6108071;23;20170;-87
2022/10/11 00:59:21;;;;;;;16.35;13.75;;;11.90;99.90;;;;;;6105780;23;20675;-87
2022/10/11 01:01:50;;;;;;;16.45;14.75;;;11.90;99.90;;;;;;6105855;23;20379;-87
2022/10/11 01:04:17;;;;;;;17.10;15.23;;;11.90;99.90;;;;;;6082120;23;20241;-87
2022/10/11 01:06:47;;;;;;;18.08;14.68;;;11.70;99.90;;;;;;6107189;23;20189;-88
2022/10/11 01:09:17;;;;;;;17.33;13.20;;;11.90;99.90;;;;;;6110879;23;20194;-86
2022/10/11 01:11:47;;;;;;;15.13;13.50;;;12.10;99.90;;;;;;6107110;23;20193;-88
2022/10/11 01:14:39;;;;;;;22.25;12.63;;;12.10;99.90;;;;;;6108804;23;20245;-86
2022/10/11 01:17:19;;;;;;;14.85;11.95;;;12.10;99.90;;;;;;6111048;23;20193;-84
2022/10/11 01:19:57;;;;;;;12.95;11.25;;;12.20;99.90;;;;;;6111892;23;20165;-86
2022/10/11 01:22:53;;;;;;;19.38;11.00;;;12.00;99.90;;;;;;6112760;23;20162;-87
2022/10/11 01:26:06;;;;;;;13.02;11.60;;;12.00;99.90;;;;;;6109292;23;20210;-86
2022/10/11 01:29:12;;;;;;;17.27;11.68;;;12.10;99.90;;;;;;6093032;23;20186;-86
2022/10/11 01:32:09;;;;;;;12.05;10.80;;;11.90;99.90;;;;;;6108302;23;20280;-87
2022/10/11 01:34:50;;;;;;;12.10;10.75;;;11.90;99.90;;;;;;6100669;23;20250;-85
2022/10/11 01:37:26;;;;;;;15.38;11.65;;;12.00;99.90;;;;;;6111081;23;20190;-87
2022/10/11 01:40:03;;;;;;;11.23;10.13;;;12.10;99.90;;;;;;6107682;23;20182;-88
2022/10/11 01:42:31;;;;;;;11.25;10.18;;;12.10;99.90;;;;;;6110812;23;20225;-87
2022/10/11 01:44:58;;;;;;;16.80;12.45;;;12.10;99.90;;;;;;6109266;23;20190;-87
2022/10/11 01:47:26;;;;;;;19.73;13.50;;;11.90;99.90;;;;;;6109596;23;20246;-87
2022/10/11 01:49:58;;;;;;;16.38;11.32;;;12.00;99.90;;;;;;6106915;23;20186;-86
2022/10/11 01:52:32;;;;;;;14.82;11.70;;;12.10;99.90;;;;;;6106945;23;20210;-85
2022/10/11 01:55:07;;;;;;;14.85;12.23;;;12.00;99.90;;;;;;6106518;23;20240;-85
2022/10/11 01:57:59;;;;;;;14.18;11.27;;;12.00;99.90;;;;;;6109956;23;20154;-84
2022/10/11 02:00:58;;;;;;;18.48;11.45;;;11.90;99.90;;;;;;6106302;23;20171;-85
2022/10/11 02:04:10;;;;;;;14.05;12.43;;;11.80;99.90;;;;;;6094982;23;20186;-85
2022/10/11 02:07:11;;;;;;;15.32;13.23;;;11.80;99.90;;;;;;6112517;23;20214;-87
2022/10/11 02:10:22;;;;;;;14.45;11.75;;;11.80;99.90;;;;;;6120169;23;20185;-88
2022/10/11 02:13:11;;;;;;;13.95;11.27;;;11.70;99.90;;;;;;6083527;23;20201;-83
2022/10/11 02:15:45;;;;;;;14.70;11.25;;;11.60;99.90;;;;;;6120776;23;20163;-90
2022/10/11 02:18:26;;;;;;;11.95;10.75;;;11.50;99.90;;;;;;6096004;23;20159;-87
2022/10/11 02:20:56;;;;;;;20.25;12.35;;;11.40;99.90;;;;;;6119652;23;20209;-88
2022/10/11 02:23:31;;;;;;;14.27;11.25;;;11.40;99.90;;;;;;6119258;23;20171;-87
2022/10/11 02:26:02;;;;;;;12.73;11.43;;;11.40;99.90;;;;;;6118182;23;20196;-88
2022/10/11 02:28:34;;;;;;;14.40;11.43;;;11.50;99.90;;;;;;6118258;23;20220;-86
2022/10/11 02:31:05;;;;;;;14.70;12.07;;;11.50;99.90;;;;;;6119108;23;20238;-87
2022/10/11 02:33:40;;;;;;;15.65;11.07;;;11.60;99.90;;;;;;6116499;23;20228;-87
2022/10/11 02:36:18;;;;;;;13.82;10.65;;;11.50;99.90;;;;;;6107421;23;20181;-87
2022/10/11 02:38:54;;;;;;;16.42;11.35;;;11.40;99.90;;;;;;6110046;23;20244;-85
2022/10/11 02:41:38;;;;;;;12.73;11.43;;;11.30;99.90;;;;;;6084132;23;20185;-86
2022/10/11 02:44:11;;;;;;;12.57;10.13;;;11.40;99.90;;;;;;6111506;23;20194;-88
2022/10/11 02:46:40;;;;;;;22.98;12.82;;;11.50;99.90;;;;;;6113521;23;20166;-88
2022/10/11 02:49:08;;;;;;;16.08;11.82;;;11.40;99.90;;;;;;6114918;23;20553;-89
2022/10/11 02:51:38;;;;;;;13.48;11.15;;;11.20;99.90;;;;;;6088557;23;20178;-85
2022/10/11 02:54:05;;;;;;;10.45;9.35;;;11.20;99.90;;;;;;6091113;23;20269;-87
2022/10/11 02:56:41;;;;;;;10.63;9.63;;;11.20;99.90;;;;;;6114804;23;20244;-85
2022/10/11 02:59:08;;;;;;;11.35;10.35;;;11.20;99.90;;;;;;6089157;23;20229;-87
2022/10/11 03:01:36;;;;;;;12.43;9.32;;;11.20;99.90;;;;;;6113420;23;20193;-86
2022/10/11 03:04:05;;;;;;;13.30;9.27;;;11.20;99.90;;;;;;6113830;23;20238;-85
2022/10/11 03:06:33;;;;;;;9.75;8.80;;;11.20;99.90;;;;;;6113563;23;20177;-87
2022/10/11 03:09:03;;;;;;;13.95;9.23;;;11.30;99.90;;;;;;6114163;23;20522;-87
2022/10/11 03:11:32;;;;;;;14.43;8.60;;;11.30;99.90;;;;;;6090998;23;20205;-88
2022/10/11 03:14:03;;;;;;;13.60;9.70;;;11.40;99.90;;;;;;6099419;23;20230;-85
2022/10/11 03:16:30;;;;;;;15.52;8.70;;;11.50;99.90;;;;;;6082682;23;20230;-86
2022/10/11 03:19:02;;;;;;;14.80;9.25;;;11.60;99.90;;;;;;6083328;23;20162;-86
2022/10/11 03:21:29;;;;;;;13.05;9.82;;;11.50;99.90;;;;;;6107815;23;20213;-87
2022/10/11 03:23:56;;;;;;;16.00;9.90;;;11.40;99.90;;;;;;6112401;23;20178;-88
2022/10/11 03:26:24;;;;;;;15.98;8.50;;;11.20;99.90;;;;;;6113132;23;20182;-86
2022/10/11 03:28:50;;;;;;;12.90;9.95;;;11.10;99.90;;;;;;6114082;23;20229;-84
2022/10/11 03:31:19;;;;;;;12.52;9.57;;;11.20;99.90;;;;;;6112066;23;20202;-88
2022/10/11 03:33:47;;;;;;;12.65;9.85;;;11.40;99.90;;;;;;6112763;23;20216;-87
2022/10/11 03:36:15;;;;;;;9.10;7.97;;;11.30;99.90;;;;;;6114059;23;20166;-87
2022/10/11 03:38:44;;;;;;;12.65;9.88;;;11.20;99.90;;;;;;6110380;23;20374;-87
2022/10/11 03:41:21;;;;;;;17.88;10.38;;;11.20;99.90;;;;;;6109601;23;20170;-86
2022/10/11 03:43:49;;;;;;;11.85;9.15;;;11.00;99.90;;;;;;6108135;23;20174;-88
2022/10/11 03:46:17;;;;;;;14.73;10.85;;;10.80;99.90;;;;;;6108773;23;20186;-86
2022/10/11 03:48:46;;;;;;;11.43;10.30;;;10.80;99.90;;;;;;6108265;23;20432;-87
2022/10/11 03:51:15;;;;;;;19.40;10.38;;;10.80;99.90;;;;;;6112555;23;20205;-86
2022/10/11 03:56:31;;;;;;;13.63;10.32;;;10.70;99.90;;;;;;6179933;23;20204;-89
2022/10/11 04:01:37;;;;;;;12.77;10.45;;;10.60;99.90;;;;;;6047098;23;20406;-87
2022/10/11 04:04:06;;;;;;;17.33;10.32;;;10.50;99.90;;;;;;6095710;23;20194;-89
2022/10/11 04:09:09;;;;;;;16.40;10.32;;;10.50;99.90;;;;;;6057735;23;20570;-87
2022/10/11 04:11:43;;;;;;;17.45;9.73;;;10.60;99.90;;;;;;6123600;23;20190;-88
2022/10/11 04:14:14;;;;;;;17.27;10.38;;;10.70;99.90;;;;;;6091847;23;20536;-89
2022/10/11 04:19:39;;;;;;;18.20;11.60;;;11.00;99.90;;;;;;6015670;23;21112;-90
2022/10/11 04:24:53;;;;;;;11.38;8.98;;;11.00;99.90;;;;;;6081635;23;20202;-91
2022/10/11 04:35:19;;;;;;;15.77;11.90;;;10.90;99.90;;;;;;6134620;23;20314;-88
2022/10/11 04:37:46;;;;;;;14.93;11.15;;;10.90;99.90;;;;;;6093748;23;20299;-90
2022/10/11 04:53:47;;;;;;;16.10;11.50;;;10.50;99.90;;;;;;6024882;23;21490;-89
2022/10/11 04:56:22;;;;;;;13.43;11.40;;;10.70;99.90;;;;;;6093222;23;20162;-87
2022/10/11 04:58:55;;;;;;;15.38;12.05;;;10.60;99.90;;;;;;6117140;23;20217;-89
2022/10/11 05:06:54;;;;;;;13.77;11.25;;;11.10;99.90;;;;;;6110698;23;20278;-88
2022/10/11 05:10:04;;;;;;;13.60;11.70;;;11.00;99.90;;;;;;6115406;23;20495;-87
2022/10/11 05:12:51;;;;;;;15.20;12.05;;;11.10;99.90;;;;;;6117047;23;20190;-88
2022/10/11 05:15:25;;;;;;;13.50;9.80;;;10.90;99.90;;;;;;6115793;23;20213;-88
2022/10/11 05:17:55;;;;;;;18.45;11.25;;;10.90;99.90;;;;;;6106072;23;20508;-83
2022/10/11 05:20:24;;;;;;;12.02;10.05;;;10.90;99.90;;;;;;6103030;23;20185;-83
2022/10/11 05:22:52;;;;;;;18.08;12.23;;;10.90;99.90;;;;;;6106358;23;20237;-86
2022/10/11 05:25:20;;;;;;;13.30;10.32;;;11.00;99.90;;;;;;6107722;23;20203;-88
2022/10/11 05:27:47;;;;;;;25.77;12.48;;;10.90;99.90;;;;;;6107132;23;20541;-87
2022/10/11 05:30:18;;;;;;;16.95;11.25;;;10.80;99.90;;;;;;6110417;23;20170;-88
2022/10/11 05:32:46;;;;;;;15.43;11.48;;;10.90;99.90;;;;;;6121666;23;20202;-87
2022/10/11 05:35:16;;;;;;;14.88;10.95;;;10.90;99.90;;;;;;6122812;23;20216;-87
2022/10/11 05:37:46;;;;;;;16.38;11.85;;;11.30;99.90;;;;;;6122330;23;20196;-88
2022/10/11 05:40:15;;;;;;;14.15;11.75;;;11.30;99.90;;;;;;6117519;23;20217;-86
2022/10/11 05:42:43;;;;;;;13.82;10.65;;;11.40;99.90;;;;;;6100988;23;20217;-87
2022/10/11 05:45:10;;;;;;;16.17;12.45;;;11.40;99.90;;;;;;6139135;23;20178;-85
2022/10/11 05:47:42;;;;;;;12.10;10.70;;;11.50;99.90;;;;;;6136324;23;20225;-86
2022/10/11 05:50:16;;;;;;;14.85;9.90;;;11.50;99.90;;;;;;6111924;23;20185;-84
2022/10/11 05:52:51;;;;;;;16.60;12.02;;;11.50;99.90;;;;;;6135245;23;20177;-83
2022/10/11 05:55:22;;;;;;;13.18;10.18;;;11.50;99.90;;;;;;6134526;23;20217;-85
2022/10/11 05:57:54;;;;;;;18.38;10.57;;;11.60;99.90;;;;;;6137258;23;20703;-86
2022/10/11 06:00:39;;;;;;;12.55;9.50;;;11.50;99.90;;;;;;6135986;23;20185;-85
2022/10/11 06:03:11;;;;;;;14.00;8.18;;;11.50;99.90;;;;;;6139031;23;20161;-85
2022/10/11 06:05:41;;;;;;;9.25;7.50;;;11.60;99.90;;;;;;6140670;23;20212;-85
2022/10/11 06:08:10;;;;;;;8.50;7.03;;;11.60;99.90;;;;;;6137192;23;20166;-85
2022/10/11 06:10:40;;;;;;;20.08;8.48;;;11.70;99.90;;;;;;6136330;23;20180;-86
2022/10/11 06:13:09;;;;;;;9.43;6.70;;;12.00;99.90;;;;;;6136457;23;20265;-84
2022/10/11 06:15:40;;;;;;;7.00;6.22;;;11.90;99.90;;;;;;6137021;23;20803;-83
2022/10/11 06:18:14;;;;;;;6.85;6.25;;;12.00;99.90;;;;;;6135710;23;20509;-85
2022/10/11 06:20:41;;;;;;;6.95;5.63;;;12.00;99.90;;;;;;6138234;23;20165;-86
2022/10/11 06:23:09;;;;;;;7.25;5.65;;;12.00;99.90;;;;;;6136782;23;20189;-84
2022/10/11 06:25:38;;;;;;;8.27;6.07;;;12.00;99.90;;;;;;6137998;23;20236;-84
2022/10/11 06:28:05;;;;;;;6.78;5.28;;;12.10;99.90;;;;;;6137460;23;20216;-84
2022/10/11 06:30:37;;;;;;;9.55;5.70;;;12.20;99.90;;;;;;6136862;23;20205;-84
2022/10/11 06:33:05;;;;;;;10.88;5.72;;;12.20;99.90;;;;;;6138902;23;20185;-84
2022/10/11 06:35:35;;;;;;;7.80;5.13;;;12.10;99.90;;;;;;6138626;23;20223;-86
2022/10/11 06:38:06;;;;;;;7.70;5.13;;;12.10;99.90;;;;;;6138363;23;20525;-84
2022/10/11 06:40:36;;;;;;;7.25;5.85;;;12.00;99.90;;;;;;6138413;23;20192;-84
2022/10/11 06:43:07;;;;;;;5.93;4.90;;;11.80;99.90;;;;;;6138401;23;20190;-84
2022/10/11 06:45:34;;;;;;;7.20;5.60;;;11.70;99.90;;;;;;6144517;23;20274;-84
2022/10/11 06:48:05;;;;;;;4.30;3.90;;;11.70;99.90;;;;;;6147973;23;20166;-85
2022/10/11 06:50:35;;;;;;;10.55;4.88;;;11.60;99.90;;;;;;6149970;23;20170;-82
2022/10/11 06:53:25;;;;;;;7.55;4.13;;;11.50;99.90;;;;;;6152107;23;20228;-84
2022/10/11 06:55:52;;;;;;;7.88;5.57;;;11.40;99.90;;;;;;6152500;23;20268;-84
2022/10/11 06:58:20;;;;;;;5.63;4.55;;;11.50;99.90;;;;;;6151827;23;20193;-86
2022/10/11 07:00:49;;;;;;;4.80;4.05;;;11.40;99.90;;;;;;6151957;23;20173;-85
2022/10/11 07:03:22;;;;;;;5.70;4.43;;;11.40;99.90;;;;;;6150825;23;20193;-85
2022/10/11 07:05:54;;;;;;;5.00;4.60;;;11.50;99.90;;;;;;6150728;23;20174;-87
2022/10/11 07:08:29;;;;;;;7.70;4.15;;;11.70;99.90;;;;;;6151627;23;20176;-86
2022/10/11 07:11:10;;;;;;;5.50;3.97;;;11.90;99.90;;;;;;6150734;23;20229;-85
2022/10/11 07:13:41;;;;;;;5.20;3.90;;;12.50;99.90;;;;;;6151079;23;20182;-86
2022/10/11 07:16:11;;;;;;;5.35;3.85;;;13.30;99.90;;;;;;6150433;23;20197;-85
2022/10/11 07:18:40;;;;;;;12.65;4.32;;;14.50;99.90;;;;;;6148304;23;20493;-88
2022/10/11 07:21:44;;;;;;;4.03;3.30;;;14.80;99.90;;;;;;6144092;23;20224;-85
2022/10/11 07:24:11;;;;;;;7.80;3.50;;;14.90;99.90;;;;;;6143372;23;20417;-85
2022/10/11 07:26:38;;;;;;;3.27;2.90;;;15.20;99.90;;;;;;6144457;23;20413;-85
2022/10/11 07:29:07;;;;;;;8.17;4.07;;;15.40;99.90;;;;;;6149417;23;20429;-88
2022/10/11 07:31:39;;;;;;;5.30;3.00;;;16.00;99.90;;;;;;6152428;23;20389;-88
2022/10/11 07:34:07;;;;;;;9.10;3.80;;;16.90;99.90;;;;;;6148857;23;20455;-87
2022/10/11 07:36:34;;;;;;;5.13;2.77;;;17.40;99.90;;;;;;6151003;23;20420;-88
2022/10/11 07:39:08;;;;;;;4.40;2.77;;;16.90;99.90;;;;;;6152536;23;20400;-86
2022/10/11 07:41:35;;;;;;;4.03;3.00;;;16.60;99.90;;;;;;6149687;23;20431;-87
2022/10/11 07:44:11;;;;;;;3.10;2.90;;;17.10;99.90;;;;;;6150205;23;20408;-85
2022/10/11 07:46:39;;;;;;;4.30;2.67;;;16.80;99.90;;;;;;6145258;23;20509;-87
2022/10/11 07:49:07;;;;;;;3.27;2.80;;;15.80;99.90;;;;;;6144002;23;20409;-86
2022/10/11 07:51:33;;;;;;;8.60;3.00;;;15.50;99.90;;;;;;6142647;23;20396;-87
2022/10/11 07:54:03;;;;;;;3.20;2.20;;;16.20;99.90;;;;;;6142388;23;20400;-88
2022/10/11 07:56:37;;;;;;;9.27;3.07;;;16.40;99.90;;;;;;6140403;23;20405;-89
2022/10/11 07:59:04;;;;;;;8.73;3.17;;;16.90;99.90;;;;;;6116427;23;20395;-88
2022/10/11 08:01:33;;;;;;;10.20;3.30;;;17.30;99.90;;;;;;6141679;23;20429;-87
2022/10/11 08:04:01;;;;;;;3.27;2.47;;;17.40;99.90;;;;;;6140012;23;20412;-86
2022/10/11 08:06:31;;;;;;;6.13;3.10;;;16.30;99.90;;;;;;6140265;23;20431;-87
2022/10/11 08:09:00;;;;;;;7.13;3.10;;;15.30;99.90;;;;;;6140711;23;20415;-88
2022/10/11 08:11:36;;;;;;;6.17;3.20;;;15.20;99.90;;;;;;6140940;23;20423;-88
2022/10/11 08:14:10;;;;;;;2.40;2.10;;;16.20;99.90;;;;;;6140538;23;20361;-86
2022/10/11 08:16:40;;;;;;;4.20;2.37;;;17.40;99.90;;;;;;6140572;23;20395;-86
2022/10/11 08:19:11;;;;;;;3.00;2.30;;;18.20;99.90;;;;;;6140240;23;20423;-86
2022/10/11 08:21:38;;;;;;;6.23;3.10;;;19.50;99.90;;;;;;6140347;23;20444;-84
2022/10/11 08:24:07;;;;;;;4.83;2.80;;;19.60;99.90;;;;;;6144137;23;20409;-86
2022/10/11 08:26:36;;;;;;;6.27;2.30;;;19.50;99.90;;;;;;6147762;23;20370;-84
2022/10/11 08:29:17;;;;;;;3.77;2.23;;;19.50;99.90;;;;;;6142055;23;20392;-86
2022/10/11 08:31:46;;;;;;;7.13;2.63;;;19.50;99.90;;;;;;6146518;23;20369;-85
2022/10/11 08:34:13;;;;;;;4.73;2.20;;;20.20;99.90;;;;;;6140469;23;20452;-87
2022/10/11 08:36:44;;;;;;;6.40;3.03;;;19.50;99.90;;;;;;6111566;23;20410;-86
2022/10/11 08:39:14;;;;;;;3.73;2.30;;;19.00;99.90;;;;;;6136333;23;20428;-84
2022/10/11 08:41:52;;;;;;;8.13;1.90;;;18.00;99.90;;;;;;6136058;23;20424;-85
2022/10/11 08:44:41;;;;;;;4.53;2.10;;;18.00;99.90;;;;;;6137978;23;20393;-88
2022/10/11 08:47:41;;;;;;;8.17;2.30;;;18.20;99.90;;;;;;6135726;23;20397;-89
2022/10/11 08:50:20;;;;;;;5.67;2.00;;;18.70;99.90;;;;;;6134213;23;20443;-85
2022/10/11 08:53:01;;;;;;;2.90;1.43;;;17.90;99.90;;;;;;6136387;23;20456;-84
2022/10/11 08:55:48;;;;;;;4.43;2.10;;;17.60;99.90;;;;;;6137626;23;20423;-88
2022/10/11 08:58:23;;;;;;;3.77;1.80;;;18.30;99.90;;;;;;6136273;23;20406;-86
2022/10/11 09:00:55;;;;;;;5.70;2.20;;;18.80;99.90;;;;;;6131476;23;20465;-86
2022/10/11 09:03:39;;;;;;;5.80;2.43;;;18.00;99.90;;;;;;6135352;23;20440;-85
2022/10/11 09:06:42;;;;;;;2.10;1.70;;;17.30;99.90;;;;;;6134497;23;20380;-87
2022/10/11 09:09:19;;;;;;;8.97;3.47;;;16.70;99.90;;;;;;6157227;23;20574;-87
2022/10/11 09:12:27;;;;;;;2.93;1.70;;;16.40;99.90;;;;;;6132500;23;20734;-86
2022/10/11 09:15:26;;;;;;;3.33;2.03;;;16.00;99.90;;;;;;6132364;23;20408;-83
2022/10/11 09:18:14;;;;;;;1.80;1.50;;;15.30;99.90;;;;;;6133416;23;20368;-87
2022/10/11 09:21:30;;;;;;;4.27;1.90;;;15.10;99.90;;;;;;6137794;23;20407;-87
2022/10/11 09:24:18;;;;;;;4.90;1.93;;;15.20;99.90;;;;;;6101746;23;20768;-86
2022/10/11 09:26:56;;;;;;;3.97;2.03;;;14.90;99.90;;;;;;6143871;23;20419;-84
2022/10/11 09:29:56;;;;;;;9.53;1.80;;;15.00;99.90;;;;;;6145056;23;20395;-85
2022/10/11 09:32:29;;;;;;;4.60;1.90;;;15.00;99.90;;;;;;6130634;23;20437;-87
2022/10/11 09:35:15;;;;;;;4.90;1.40;;;14.90;99.90;;;;;;6133549;23;20446;-86
2022/10/11 09:38:04;;;;;;;3.43;2.10;;;15.00;99.90;;;;;;6135068;23;20393;-85
2022/10/11 09:41:00;;;;;;;3.00;1.70;;;15.10;99.90;;;;;;6136163;23;20447;-84
2022/10/11 09:43:30;;;;;;;2.07;1.37;;;15.10;99.90;;;;;;6136082;23;20496;-83
2022/10/11 09:45:57;;;;;;;2.07;1.87;;;15.10;99.90;;;;;;6132138;23;21012;-82
2022/10/11 09:48:40;;;;;;;5.67;1.87;;;15.10;99.90;;;;;;6134666;23;20399;-85
2022/10/11 09:51:15;;;;;;;3.00;1.70;;;15.00;99.90;;;;;;6135822;23;20395;-84
2022/10/11 09:53:58;;;;;;;2.60;2.00;;;14.80;99.90;;;;;;6133495;23;20386;-83
2022/10/11 09:56:28;;;;;;;4.10;1.23;;;14.90;99.90;;;;;;6133243;23;20687;-82
2022/10/11 09:59:28;;;;;;;3.37;1.63;;;14.90;99.90;;;;;;6136130;23;20433;-84
2022/10/11 10:02:15;;;;;;;10.30;1.70;;;15.10;99.90;;;;;;6128529;23;20437;-86
2022/10/11 10:05:07;;;;;;;7.70;2.37;;;15.40;99.90;;;;;;6142832;23;20369;-86
2022/10/11 10:07:39;;;;;;;3.93;1.33;;;15.70;99.90;;;;;;6146363;23;20379;-84
2022/10/11 10:10:39;;;;;;;5.80;2.10;;;15.90;99.90;;;;;;6145681;23;20440;-88
2022/10/11 10:13:33;;;;;;;4.03;1.70;;;16.10;99.90;;;;;;6146311;23;20411;-85
2022/10/11 10:16:10;;;;;;;3.20;1.67;;;16.10;99.90;;;;;;6144197;23;20486;-82
2022/10/11 10:18:58;;;;;;;6.93;3.00;;;15.70;99.90;;;;;;6143968;23;20403;-87
2022/10/11 10:21:46;;;;;;;3.40;1.70;;;15.40;99.90;;;;;;6142247;23;20396;-84
2022/10/11 10:24:26;;;;;;;5.17;1.53;;;15.30;99.90;;;;;;6138759;23;20423;-91
2022/10/11 10:27:10;;;;;;;3.47;1.87;;;15.40;99.90;;;;;;6153988;23;20408;-84
2022/10/11 10:29:38;;;;;;;1.73;1.30;;;15.30;99.90;;;;;;6152661;23;20380;-88
2022/10/11 10:32:24;;;;;;;7.80;1.60;;;15.30;99.90;;;;;;6151971;23;20399;-87
2022/10/11 10:35:34;;;;;;;1.73;1.00;;;15.30;99.90;;;;;;6144907;23;20435;-87
2022/10/11 10:38:32;;;;;;;4.73;1.80;;;15.30;99.90;;;;;;6139206;23;20420;-83
2022/10/11 10:41:04;;;;;;;4.20;1.77;;;15.10;99.90;;;;;;6135664;23;20406;-86
2022/10/11 10:43:34;;;;;;;1.93;1.63;;;15.20;99.90;;;;;;6134791;23;20426;-85
2022/10/11 10:46:35;;;;;;;4.30;2.67;;;15.40;99.90;;;;;;6134767;23;20425;-82
2022/10/11 10:49:17;;;;;;;3.47;1.57;;;15.50;99.90;;;;;;6157257;23;20418;-85
2022/10/11 10:52:22;;;;;;;5.17;1.30;;;15.70;99.90;;;;;;6154370;23;20782;-84
2022/10/11 10:55:29;;;;;;;3.30;2.33;;;15.70;99.90;;;;;;6135880;23;20568;-86
2022/10/11 10:58:20;;;;;;;3.50;1.43;;;15.70;99.90;;;;;;6103051;23;20741;-84
2022/10/11 11:00:57;;;;;;;3.23;2.10;;;15.60;99.90;;;;;;6134798;23;20406;-86
2022/10/11 11:03:43;;;;;;;6.33;1.60;;;15.80;99.90;;;;;;6137636;23;20381;-87
2022/10/11 11:06:34;;;;;;;1.97;1.00;;;15.90;99.90;;;;;;6135967;23;20404;-87
2022/10/11 11:09:24;;;;;;;2.60;1.77;;;16.00;99.90;;;;;;6133901;23;20453;-86
2022/10/11 11:12:38;;;;;;;10.03;1.83;;;15.90;99.90;;;;;;6134926;23;20410;-85
2022/10/11 11:15:28;;;;;;;4.10;1.70;;;15.70;99.90;;;;;;6129406;23;20422;-86
2022/10/11 11:18:19;;;;;;;3.67;2.23;;;15.70;99.90;;;;;;6134115;23;20393;-86
2022/10/11 11:21:39;;;;;;;3.97;1.70;;;15.70;99.90;;;;;;6131245;23;20455;-86
2022/10/11 11:24:24;;;;;;;7.97;1.43;;;15.40;99.90;;;;;;6136917;23;20555;-88
2022/10/11 11:27:11;;;;;;;6.87;1.67;;;15.10;99.90;;;;;;6136862;23;20408;-85
2022/10/11 11:30:00;;;;;;;1.83;1.50;;;14.80;99.90;;;;;;6138992;23;20384;-87
2022/10/11 11:32:52;;;;;;;6.43;2.30;;;14.50;99.90;;;;;;6140039;23;20374;-85
2022/10/11 11:35:32;;;;;;;4.33;1.20;;;14.60;99.90;;;;;;6134970;23;20427;-88
2022/10/11 11:38:23;;;;;;;2.30;1.40;;;14.40;99.90;;;;;;6134205;23;20417;-88
2022/10/11 11:41:00;;;;;;;2.92;1.50;;;14.30;99.90;;;;;;6137432;23;20405;-87
2022/10/11 11:43:38;;;;;;;6.30;1.67;;;14.40;99.90;;;;;;6149564;23;20465;-85
2022/10/11 11:46:19;;;;;;;3.05;1.30;;;14.50;99.90;;;;;;6137344;23;20195;-85
2022/10/11 11:48:59;;;;;;;1.37;1.10;;;14.50;99.90;;;;;;6140565;23;20688;-88
2022/10/11 11:51:36;;;;;;;7.63;1.50;;;14.70;99.90;;;;;;6150080;23;20394;-90
2022/10/11 11:54:18;;;;;;;5.13;1.60;;;14.90;99.90;;;;;;6121589;23;20299;-88
2022/10/11 11:57:43;;;;;;;3.60;3.30;;;14.90;99.90;;;;;;6108342;23;20446;-86
2022/10/11 12:00:26;;;;;;;4.93;2.10;;;15.00;99.90;;;;;;6090085;23;20416;-89
2022/10/11 12:03:11;;;;;;;1.93;1.60;;;15.20;99.90;;;;;;6042498;23;20401;-87
2022/10/11 12:06:17;;;;;;;7.43;1.43;;;15.00;99.90;;;;;;6105314;23;20498;-91
2022/10/11 12:09:21;;;;;;;8.17;1.37;;;14.80;99.90;;;;;;6114450;23;20424;-87
2022/10/11 12:12:00;;;;;;;3.83;2.33;;;14.60;99.90;;;;;;6092863;23;20406;-89
2022/10/11 12:14:39;;;;;;;5.10;1.40;;;14.60;99.90;;;;;;6116299;23;20459;-86
2022/10/11 12:17:29;;;;;;;9.63;1.77;;;14.70;99.90;;;;;;6114152;23;20437;-88
2022/10/11 12:20:26;;;;;;;4.37;1.67;;;14.90;99.90;;;;;;6114779;23;20411;-86
2022/10/11 12:22:59;;;;;;;6.00;1.83;;;15.00;99.90;;;;;;6112021;23;20428;-88
2022/10/11 12:25:39;;;;;;;2.30;1.67;;;14.90;99.90;;;;;;6115946;23;20761;-88
2022/10/11 12:29:06;;;;;;;15.47;2.20;;;15.00;99.90;;;;;;6109243;23;20419;-87
2022/10/11 12:31:39;;;;;;;4.37;2.10;;;15.10;99.90;;;;;;6113365;23;20392;-86
2022/10/11 12:34:42;;;;;;;5.73;2.37;;;15.10;99.90;;;;;;6112879;23;20396;-87
2022/10/11 12:37:32;;;;;;;5.20;3.10;;;15.10;99.90;;;;;;6114870;23;20433;-86
2022/10/11 12:40:34;;;;;;;4.13;1.97;;;15.20;99.90;;;;;;6115615;23;20600;-84
2022/10/11 12:43:18;;;;;;;2.77;2.10;;;15.10;99.90;;;;;;6114401;23;20415;-86
2022/10/11 12:46:28;;;;;;;4.80;1.90;;;14.90;99.90;;;;;;6116459;23;20396;-86
2022/10/11 12:49:53;;;;;;;2.87;1.63;;;15.00;99.90;;;;;;6115752;23;20367;-88
2022/10/11 12:52:41;;;;;;;1.87;1.60;;;15.10;99.90;;;;;;6055818;23;20435;-86
2022/10/11 12:55:53;;;;;;;3.23;1.37;;;15.10;99.90;;;;;;6112877;23;20390;-89
2022/10/11 12:58:40;;;;;;;8.67;1.80;;;15.00;99.90;;;;;;6116408;23;20696;-88
2022/10/11 13:01:21;;;;;;;3.07;1.83;;;15.10;99.90;;;;;;6106581;23;20414;-85
2022/10/11 13:04:10;;;;;;;4.60;1.87;;;15.10;99.90;;;;;;6109012;23;20701;-89
2022/10/11 13:06:46;;;;;;;15.80;1.90;;;15.10;99.90;;;;;;6104569;23;20433;-87
2022/10/11 13:09:30;;;;;;;6.60;2.40;;;15.10;99.90;;;;;;6110347;23;20623;-86
2022/10/11 13:12:08;;;;;;;1.67;1.20;;;15.10;99.90;;;;;;6108448;23;20496;-86
2022/10/11 13:14:41;;;;;;;5.30;1.83;;;15.00;99.90;;;;;;6113217;23;20419;-87
2022/10/11 13:17:23;;;;;;;4.93;1.47;;;15.00;99.90;;;;;;6115262;23;20439;-89
2022/10/11 13:20:25;;;;;;;2.97;1.57;;;15.10;99.90;;;;;;6111569;23;20418;-87
2022/10/11 13:22:56;;;;;;;3.00;1.27;;;15.10;99.90;;;;;;6106932;23;20419;-89
2022/10/11 13:25:28;;;;;;;3.77;1.50;;;15.10;99.90;;;;;;6086618;23;20460;-87
2022/10/11 13:28:00;;;;;;;3.50;1.83;;;15.00;99.90;;;;;;6110535;23;20401;-85
2022/10/11 13:30:33;;;;;;;3.13;1.63;;;15.00;99.90;;;;;;6110427;23;20403;-86
2022/10/11 13:33:07;;;;;;;3.90;1.60;;;14.90;99.90;;;;;;6110335;23;20380;-88
2022/10/11 13:35:37;;;;;;;3.97;1.73;;;15.00;99.90;;;;;;6110817;23;20890;-88
2022/10/11 13:38:08;;;;;;;2.67;1.30;;;15.00;99.90;;;;;;6106356;23;20552;-87
2022/10/11 13:40:38;;;;;;;3.40;1.57;;;14.90;99.90;;;;;;6131404;23;20479;-86
2022/10/11 13:43:14;;;;;;;3.13;1.20;;;14.80;99.90;;;;;;6085967;23;20395;-89
2022/10/11 13:45:42;;;;;;;5.83;1.20;;;14.80;99.90;;;;;;6112384;23;20474;-88
2022/10/11 13:48:23;;;;;;;2.50;1.60;;;14.70;99.90;;;;;;6111941;23;20429;-86
2022/10/11 13:54:08;;;;;;;4.40;1.37;;;14.80;99.90;;;;;;6146025;23;20385;-86
2022/10/11 13:56:50;;;;;;;4.60;1.60;;;14.70;99.90;;;;;;6136320;23;20417;-88
2022/10/11 13:59:23;;;;;;;3.72;1.15;;;14.70;99.90;;;;;;6111943;23;20396;-83
2022/10/11 14:02:03;;;;;;;2.53;1.10;;;14.80;99.90;;;;;;6113092;23;20228;-89
2022/10/11 14:04:39;;;;;;;2.00;1.10;;;14.60;99.90;;;;;;6087002;23;20395;-88
2022/10/11 14:07:30;;;;;;;1.70;1.10;;;14.50;99.90;;;;;;6136451;23;20388;-90
2022/10/11 14:10:04;;;;;;;4.30;1.13;;;14.60;99.90;;;;;;6112125;23;20395;-90
2022/10/11 14:12:43;;;;;;;3.17;1.30;;;14.60;99.90;;;;;;6114430;23;20390;-83
2022/10/11 14:15:29;;;;;;;4.37;1.23;;;14.50;99.90;;;;;;6134470;23;20200;-86
2022/10/11 14:17:58;;;;;;;1.90;1.30;;;14.50;99.90;;;;;;6109339;23;20473;-87
2022/10/11 14:20:37;;;;;;;2.17;1.37;;;14.50;99.90;;;;;;6083892;23;20451;-88
2022/10/11 14:28:30;;;;;;;2.10;1.60;;;14.60;99.90;;;;;;6114894;23;20523;-87